createdAt,value
2023-01-28T00:00:02.492Z,93.49
2023-01-28T00:02:33.775Z,93.64
2023-01-28T00:05:01.388Z,93.27
2023-01-28T00:07:29.169Z,93.43
2023-01-28T00:09:56.753Z,93.36
2023-01-28T00:12:24.603Z,93.44
2023-01-28T00:14:52.516Z,93.76
2023-01-28T00:17:20.872Z,93.97
2023-01-28T00:19:48.718Z,93.59
2023-01-28T00:22:16.446Z,93.35
2023-01-28T00:24:44.056Z,93.31
2023-01-28T00:27:11.912Z,93.30
2023-01-28T00:29:39.970Z,93.57
2023-01-28T00:32:07.850Z,93.59
2023-01-28T00:34:35.544Z,93.86
2023-01-28T00:37:03.245Z,93.94
2023-01-28T00:39:32.549Z,94.16
2023-01-28T00:42:02.330Z,94.03
2023-01-28T00:44:30.176Z,94.21
2023-01-28T00:46:58.104Z,93.94
2023-01-28T00:49:25.706Z,94.13
2023-01-28T00:51:54.048Z,93.88
2023-01-28T00:54:22.093Z,94.03
2023-01-28T00:56:49.632Z,94.06
2023-01-28T00:59:17.311Z,94.15
2023-01-28T01:01:45.050Z,94.02
2023-01-28T01:04:12.724Z,94.08
2023-01-28T01:06:40.658Z,94.04
2023-01-28T01:09:10.649Z,94.21
2023-01-28T01:11:38.783Z,95.02
2023-01-28T01:14:07.353Z,94.49
2023-01-28T01:16:36.431Z,94.76
2023-01-28T01:19:04.124Z,95.55
2023-01-28T01:21:32.737Z,96.02
2023-01-28T01:24:00.603Z,96.40
2023-01-28T01:26:28.885Z,96.65
2023-01-28T01:28:58.387Z,96.14
2023-01-28T01:31:26.068Z,95.74
2023-01-28T01:33:53.926Z,96.14
2023-01-28T01:36:22.478Z,95.54
2023-01-28T01:38:53.739Z,95.55
2023-01-28T01:41:29.873Z,95.43
2023-01-28T01:43:59.640Z,95.45
2023-01-28T01:46:48.904Z,95.07
2023-01-28T01:49:27.108Z,95.38
2023-01-28T01:52:01.975Z,95.18
2023-01-28T01:54:30.265Z,95.65
2023-01-28T01:56:57.922Z,95.70
2023-01-28T01:59:27.617Z,96.24
2023-01-28T02:01:55.287Z,96.96
2023-01-28T02:04:25.798Z,96.74
2023-01-28T02:06:53.485Z,96.98
2023-01-28T02:09:30.239Z,96.31
2023-01-28T02:12:19.132Z,96.19
2023-01-28T02:14:48.901Z,95.44
2023-01-28T02:17:16.786Z,95.50
2023-01-28T02:20:09.434Z,95.39
2023-01-28T02:23:08.493Z,94.75
2023-01-28T02:25:56.751Z,94.54
2023-01-28T02:28:27.433Z,94.77
2023-01-28T02:31:04.958Z,94.85
2023-01-28T02:33:35.526Z,95.28
2023-01-28T02:36:14.863Z,95.40
2023-01-28T02:38:46.000Z,95.17
2023-01-28T02:41:19.312Z,95.00
2023-01-28T02:43:47.284Z,95.35
2023-01-28T02:46:45.503Z,95.28
2023-01-28T02:49:38.637Z,95.54
2023-01-28T02:52:58.670Z,95.34
2023-01-28T02:55:45.748Z,95.54
2023-01-28T02:58:18.325Z,95.18
2023-01-28T03:01:26.598Z,95.01
2023-01-28T03:04:23.590Z,95.12
2023-01-28T03:06:54.077Z,94.95
2023-01-28T03:09:25.835Z,94.84
2023-01-28T03:12:32.906Z,94.97
2023-01-28T03:15:24.438Z,94.69
2023-01-28T03:18:29.958Z,94.56
2023-01-28T03:21:31.533Z,94.42
2023-01-28T03:24:27.000Z,93.97
2023-01-28T03:27:25.034Z,93.86
2023-01-28T03:30:20.318Z,94.12
2023-01-28T03:33:06.860Z,94.17
2023-01-28T03:35:54.115Z,94.30
2023-01-28T03:38:23.202Z,93.98
2023-01-28T03:40:53.261Z,94.14
2023-01-28T03:43:21.082Z,93.72
2023-01-28T04:00:26.717Z,95.52
2023-01-28T04:02:56.340Z,96.69
2023-01-28T04:05:25.740Z,97.31
2023-01-28T04:07:55.744Z,96.71
2023-01-28T04:10:51.165Z,96.65
2023-01-28T04:13:30.785Z,96.26
2023-01-28T04:15:58.502Z,96.02
2023-01-28T04:18:27.609Z,96.34
2023-01-28T04:20:57.901Z,96.14
2023-01-28T04:23:25.627Z,95.93
2023-01-28T04:25:53.315Z,96.65
2023-01-28T04:28:23.097Z,96.35
2023-01-28T04:30:52.274Z,96.84
2023-01-28T04:33:38.328Z,96.66
2023-01-28T04:36:24.895Z,96.42
2023-01-28T04:39:23.154Z,96.23
2023-01-28T04:42:09.123Z,96.08
2023-01-28T04:44:54.336Z,96.38
2023-01-28T04:47:40.660Z,96.59
2023-01-28T04:50:44.495Z,96.54
2023-01-28T04:53:41.271Z,96.68
2023-01-28T04:56:24.644Z,96.72
2023-01-28T04:58:52.418Z,96.54
2023-01-28T05:01:20.302Z,96.81
2023-01-28T05:03:48.228Z,96.78
2023-01-28T05:06:23.761Z,96.64
2023-01-28T05:08:55.092Z,96.55
2023-01-28T05:11:24.515Z,96.24
2023-01-28T05:13:57.924Z,96.04
2023-01-28T05:16:32.148Z,95.78
2023-01-28T05:18:59.922Z,95.58
2023-01-28T05:21:33.714Z,95.61
2023-01-28T05:24:08.145Z,96.06
2023-01-28T05:26:37.480Z,96.60
2023-01-28T05:29:05.091Z,96.53
2023-01-28T05:31:34.148Z,97.19
2023-01-28T05:34:01.768Z,97.22
2023-01-28T05:36:29.514Z,97.30
2023-01-28T05:38:58.032Z,98.72
2023-01-28T05:41:25.731Z,98.75
2023-01-28T05:43:58.103Z,98.44
2023-01-28T05:46:55.076Z,98.55
2023-01-28T05:50:01.166Z,98.61
2023-01-28T05:52:37.503Z,98.76
2023-01-28T05:55:08.299Z,98.54
2023-01-28T05:57:36.339Z,98.81
2023-01-28T06:00:05.831Z,98.31
2023-01-28T06:02:43.435Z,98.59
2023-01-28T06:05:14.728Z,98.32
2023-01-28T06:07:45.513Z,98.23
2023-01-28T06:10:13.857Z,97.91
2023-01-28T06:12:41.878Z,97.84
2023-01-28T06:15:30.261Z,97.47
2023-01-28T06:18:18.645Z,97.16
2023-01-28T06:20:49.973Z,97.07
2023-01-28T06:23:18.150Z,96.64
2023-01-28T06:25:45.907Z,96.88
2023-01-28T06:28:18.048Z,96.60
2023-01-28T06:30:49.545Z,96.17
2023-01-28T06:33:17.438Z,96.37
2023-01-28T06:35:45.687Z,95.90
2023-01-28T06:38:13.526Z,95.98
2023-01-28T06:40:41.264Z,95.51
2023-01-28T06:43:14.198Z,95.58
2023-01-28T06:45:41.963Z,95.27
2023-01-28T06:48:09.721Z,95.26
2023-01-28T06:50:37.408Z,95.61
2023-01-28T06:53:05.170Z,95.45
2023-01-28T06:55:32.823Z,95.72
2023-01-28T06:58:01.400Z,95.42
2023-01-28T07:00:29.250Z,95.39
2023-01-28T07:02:57.478Z,95.40
2023-01-28T07:05:25.540Z,94.56
2023-01-28T07:07:53.798Z,95.06
2023-01-28T07:10:21.456Z,94.05
2023-01-28T07:12:50.247Z,93.84
2023-01-28T07:15:18.057Z,94.36
2023-01-28T07:17:45.803Z,93.80
2023-01-28T07:20:15.800Z,93.19
2023-01-28T07:22:44.324Z,93.36
2023-01-28T07:25:12.638Z,93.66
2023-01-28T07:27:40.433Z,92.83
2023-01-28T07:30:09.069Z,92.11
2023-01-28T07:32:40.018Z,92.52
2023-01-28T07:35:08.427Z,92.48
2023-01-28T07:37:36.397Z,94.08
2023-01-28T07:40:04.399Z,95.41
2023-01-28T07:42:35.303Z,96.11
2023-01-28T07:45:06.856Z,96.82
2023-01-28T07:47:34.915Z,97.02
2023-01-28T07:50:02.820Z,97.25
2023-01-28T07:52:30.746Z,97.82
2023-01-28T07:54:58.359Z,97.89
2023-01-28T07:57:26.140Z,98.01
2023-01-28T07:59:54.107Z,98.38
2023-01-28T08:02:21.731Z,99.24
2023-01-28T08:04:50.398Z,99.32
2023-01-28T08:07:18.670Z,99.42
2023-01-28T08:09:46.614Z,99.49
2023-01-28T08:12:14.340Z,99.58
2023-01-28T08:14:42.092Z,99.77
2023-01-28T08:17:15.456Z,99.41
2023-01-28T08:19:43.269Z,99.43
2023-01-28T08:22:11.124Z,99.24
2023-01-28T08:24:39.531Z,99.36
2023-01-28T08:27:07.318Z,99.57
2023-01-28T08:29:35.732Z,99.61
2023-01-28T08:32:03.627Z,99.83
2023-01-28T08:34:33.462Z,99.08
2023-01-28T08:37:01.157Z,99.00
2023-01-28T08:39:29.012Z,98.92
2023-01-28T08:41:57.009Z,98.69
2023-01-28T08:44:24.893Z,98.66
2023-01-28T08:46:52.644Z,98.20
2023-01-28T08:49:22.554Z,98.31
2023-01-28T08:51:50.195Z,97.96
2023-01-28T08:54:18.244Z,97.77
2023-01-28T08:56:45.952Z,97.20
2023-01-28T08:59:13.631Z,97.18
2023-01-28T09:01:41.296Z,97.29
2023-01-28T09:04:08.958Z,97.14
2023-01-28T09:06:36.972Z,97.04
2023-01-28T09:09:04.797Z,96.83
2023-01-28T09:11:32.934Z,96.33
2023-01-28T09:14:00.700Z,96.60
2023-01-28T09:16:28.366Z,96.54
2023-01-28T09:18:56.116Z,96.36
2023-01-28T09:21:23.719Z,96.71
2023-01-28T09:23:52.248Z,96.09
2023-01-28T09:26:20.392Z,96.09
2023-01-28T09:28:48.326Z,96.34
2023-01-28T09:31:15.961Z,95.68
2023-01-28T09:33:43.824Z,95.34
2023-01-28T09:36:11.408Z,95.48
2023-01-28T09:38:39.541Z,95.95
2023-01-28T09:41:21.232Z,95.81
2023-01-28T09:44:05.225Z,95.15
2023-01-28T09:46:36.944Z,94.75
2023-01-28T09:49:25.021Z,95.11
2023-01-28T09:51:54.139Z,94.41
2023-01-28T09:54:28.155Z,94.45
2023-01-28T09:57:21.540Z,93.79
2023-01-28T09:59:49.964Z,93.73
2023-01-28T10:02:36.913Z,94.36
2023-01-28T10:05:25.097Z,94.14
2023-01-28T10:08:12.509Z,93.84
2023-01-28T10:10:51.436Z,93.29
2023-01-28T10:13:22.209Z,92.74
2023-01-28T10:15:59.080Z,92.64
2023-01-28T10:18:57.576Z,92.69
2023-01-28T10:21:43.244Z,92.37
2023-01-28T10:24:31.128Z,93.19
2023-01-28T10:26:58.855Z,93.21
2023-01-28T10:29:29.376Z,93.04
2023-01-28T10:32:17.028Z,92.67
2023-01-28T10:34:45.019Z,92.43
2023-01-28T10:37:15.901Z,93.20
2023-01-28T10:39:43.711Z,92.69
2023-01-28T10:42:30.206Z,92.63
2023-01-28T10:45:17.155Z,92.71
2023-01-28T10:48:03.452Z,92.55
2023-01-28T10:50:31.587Z,93.01
2023-01-28T10:53:00.722Z,92.40
2023-01-28T10:55:30.801Z,92.69
2023-01-28T10:57:58.847Z,92.03
2023-01-28T11:00:31.035Z,91.82
2023-01-28T11:02:59.307Z,91.85
2023-01-28T11:05:30.815Z,92.58
2023-01-28T11:08:05.975Z,91.97
2023-01-28T11:10:35.893Z,92.55
2023-01-28T11:13:05.730Z,92.44
2023-01-28T11:15:34.299Z,92.29
2023-01-28T11:18:11.372Z,92.24
2023-01-28T11:20:41.807Z,92.32
2023-01-28T11:23:20.111Z,92.70
2023-01-28T11:25:48.057Z,92.58
2023-01-28T11:28:20.037Z,92.64
2023-01-28T11:30:52.275Z,92.65
2023-01-28T11:33:26.894Z,92.51
2023-01-28T11:36:04.054Z,92.25
2023-01-28T11:38:32.235Z,91.47
2023-01-28T11:41:01.593Z,91.39
2023-01-28T11:43:31.152Z,91.41
2023-01-28T11:46:20.649Z,90.82
2023-01-28T11:49:13.245Z,90.85
2023-01-28T11:51:47.550Z,90.53
2023-01-28T11:54:27.300Z,90.54
2023-01-28T11:57:13.274Z,90.90
2023-01-28T11:59:59.124Z,90.94
2023-01-28T12:02:45.954Z,90.84
2023-01-28T12:05:38.315Z,90.30
2023-01-28T12:08:25.413Z,90.60
2023-01-28T12:11:13.086Z,90.43
2023-01-28T12:13:45.112Z,90.29
2023-01-28T12:16:22.461Z,89.90
2023-01-28T12:19:13.438Z,89.72
2023-01-28T12:22:11.968Z,90.73
2023-01-28T12:25:08.758Z,90.18
2023-01-28T12:27:48.555Z,89.47
2023-01-28T12:30:22.532Z,89.32
2023-01-28T12:32:58.794Z,88.37
2023-01-28T12:35:32.826Z,89.01
2023-01-28T12:38:15.716Z,88.58
2023-01-28T12:40:48.347Z,88.60
2023-01-28T12:43:37.453Z,88.28
2023-01-28T12:46:10.044Z,88.49
2023-01-28T12:48:44.209Z,88.68
2023-01-28T12:51:18.525Z,88.89
2023-01-28T12:53:52.716Z,89.01
2023-01-28T12:56:24.088Z,89.28
2023-01-28T12:58:56.528Z,88.77
2023-01-28T13:01:30.345Z,89.29
2023-01-28T13:04:03.418Z,88.96
2023-01-28T16:51:18.346Z,88.85
2023-01-28T16:53:47.397Z,88.54
2023-01-28T16:56:44.591Z,88.91
2023-01-28T16:59:13.845Z,89.21
2023-01-28T17:01:41.556Z,89.21
2023-01-28T17:04:12.228Z,89.26
2023-01-28T17:06:44.917Z,88.98
2023-01-28T17:09:13.960Z,88.63
2023-01-28T17:11:41.918Z,88.91
2023-01-28T17:14:10.443Z,88.76
2023-01-28T17:16:38.488Z,88.91
2023-01-28T17:19:06.799Z,88.97
2023-01-28T17:21:49.935Z,89.01
2023-01-28T17:24:17.666Z,88.68
2023-01-28T17:26:45.654Z,89.28
2023-01-28T17:29:13.338Z,88.94
2023-01-28T17:31:41.091Z,89.09
2023-01-28T17:34:11.521Z,89.25
2023-01-28T17:36:42.074Z,88.98
2023-01-28T17:39:09.971Z,88.92
2023-01-28T17:41:38.035Z,89.32
2023-01-28T17:44:05.999Z,89.15
2023-01-28T17:46:34.959Z,89.28
2023-01-28T17:49:03.226Z,88.63
2023-01-28T17:51:30.933Z,88.92
2023-01-28T17:53:58.603Z,89.20
2023-01-28T17:56:27.484Z,89.38
2023-01-28T17:58:57.118Z,89.32
2023-01-28T23:23:49.364Z,90.27
2023-01-28T23:26:17.023Z,90.77
2023-01-28T23:28:44.555Z,90.73
2023-01-28T23:31:12.197Z,90.50
2023-01-28T23:33:39.752Z,90.91
2023-01-28T23:36:07.690Z,90.98
2023-01-28T23:38:35.258Z,91.07
2023-01-28T23:41:02.883Z,90.56
2023-01-28T23:43:30.502Z,90.56
2023-01-28T23:45:58.040Z,90.64
2023-01-28T23:48:26.392Z,91.10
2023-01-28T23:50:56.971Z,91.23
2023-01-28T23:53:25.339Z,90.95
2023-01-28T23:55:53.489Z,91.26
2023-01-28T23:58:37.484Z,90.81
